sensor_id;sensor_type;location;lat;lon;timestamp;P1;durP1;ratioP1;P2;durP2;ratioP2
18334;SDS011;9293;49.524;10.964;2023-03-02T00:01:54;30.67;;;19.65;;
18334;SDS011;9293;49.524;10.964;2023-03-02T00:04:27;34.15;;;19.38;;
18334;SDS011;9293;49.524;10.964;2023-03-02T00:07:09;33.95;;;20.38;;
18334;SDS011;9293;49.524;10.964;2023-03-02T00:12:07;29.02;;;18.92;;
18334;SDS011;9293;49.524;10.964;2023-03-02T00:14:35;29.42;;;18.80;;
18334;SDS011;9293;49.524;10.964;2023-03-02T00:17:04;30.95;;;19.65;;
18334;SDS011;9293;49.524;10.964;2023-03-02T00:19:34;30.00;;;18.75;;
18334;SDS011;9293;49.524;10.964;2023-03-02T00:22:03;29.45;;;18.70;;
18334;SDS011;9293;49.524;10.964;2023-03-02T00:24:31;28.27;;;19.88;;
18334;SDS011;9293;49.524;10.964;2023-03-02T00:26:59;33.63;;;18.92;;
18334;SDS011;9293;49.524;10.964;2023-03-02T00:29:27;29.23;;;18.77;;
18334;SDS011;9293;49.524;10.964;2023-03-02T00:31:55;30.02;;;18.60;;
18334;SDS011;9293;49.524;10.964;2023-03-02T00:34:23;28.10;;;18.58;;
18334;SDS011;9293;49.524;10.964;2023-03-02T00:36:51;29.83;;;18.58;;
18334;SDS011;9293;49.524;10.964;2023-03-02T00:39:19;28.25;;;18.08;;
18334;SDS011;9293;49.524;10.964;2023-03-02T00:41:47;25.13;;;17.08;;
18334;SDS011;9293;49.524;10.964;2023-03-02T00:44:17;28.90;;;17.23;;
18334;SDS011;9293;49.524;10.964;2023-03-02T00:46:48;25.92;;;16.95;;
18334;SDS011;9293;49.524;10.964;2023-03-02T00:49:19;30.02;;;19.13;;
18334;SDS011;9293;49.524;10.964;2023-03-02T00:51:47;30.20;;;17.90;;
18334;SDS011;9293;49.524;10.964;2023-03-02T00:54:15;30.35;;;17.42;;
18334;SDS011;9293;49.524;10.964;2023-03-02T00:56:43;29.33;;;18.17;;
18334;SDS011;9293;49.524;10.964;2023-03-02T00:59:12;25.58;;;16.85;;
18334;SDS011;9293;49.524;10.964;2023-03-02T01:02:08;25.33;;;16.48;;
18334;SDS011;9293;49.524;10.964;2023-03-02T01:04:40;29.15;;;17.33;;
18334;SDS011;9293;49.524;10.964;2023-03-02T01:07:11;26.80;;;17.33;;
18334;SDS011;9293;49.524;10.964;2023-03-02T01:09:44;29.98;;;18.10;;
18334;SDS011;9293;49.524;10.964;2023-03-02T01:12:12;28.80;;;18.38;;
18334;SDS011;9293;49.524;10.964;2023-03-02T01:14:42;25.98;;;17.08;;
18334;SDS011;9293;49.524;10.964;2023-03-02T01:17:14;25.73;;;16.33;;
18334;SDS011;9293;49.524;10.964;2023-03-02T01:19:42;27.00;;;17.23;;
18334;SDS011;9293;49.524;10.964;2023-03-02T01:22:10;29.95;;;17.98;;
18334;SDS011;9293;49.524;10.964;2023-03-02T01:24:38;31.17;;;17.95;;
18334;SDS011;9293;49.524;10.964;2023-03-02T01:27:09;24.65;;;16.70;;
18334;SDS011;9293;49.524;10.964;2023-03-02T01:29:42;27.42;;;17.42;;
18334;SDS011;9293;49.524;10.964;2023-03-02T01:32:10;28.08;;;17.42;;
18334;SDS011;9293;49.524;10.964;2023-03-02T01:34:38;28.65;;;17.58;;
18334;SDS011;9293;49.524;10.964;2023-03-02T01:37:06;30.25;;;18.30;;
18334;SDS011;9293;49.524;10.964;2023-03-02T01:39:34;25.45;;;17.65;;
18334;SDS011;9293;49.524;10.964;2023-03-02T01:42:02;29.98;;;18.60;;
18334;SDS011;9293;49.524;10.964;2023-03-02T01:47:05;29.92;;;18.85;;
18334;SDS011;9293;49.524;10.964;2023-03-02T01:52:27;28.35;;;17.55;;
18334;SDS011;9293;49.524;10.964;2023-03-02T01:54:58;33.45;;;18.70;;
18334;SDS011;9293;49.524;10.964;2023-03-02T01:57:32;28.38;;;18.60;;
18334;SDS011;9293;49.524;10.964;2023-03-02T02:00:15;29.33;;;18.00;;
18334;SDS011;9293;49.524;10.964;2023-03-02T02:02:52;28.95;;;18.50;;
18334;SDS011;9293;49.524;10.964;2023-03-02T02:05:39;28.95;;;17.95;;
18334;SDS011;9293;49.524;10.964;2023-03-02T02:08:09;29.58;;;18.75;;
18334;SDS011;9293;49.524;10.964;2023-03-02T02:13:08;29.38;;;16.85;;
18334;SDS011;9293;49.524;10.964;2023-03-02T02:15:37;28.45;;;18.15;;
18334;SDS011;9293;49.524;10.964;2023-03-02T02:18:07;31.50;;;18.05;;
18334;SDS011;9293;49.524;10.964;2023-03-02T02:20:37;28.15;;;18.00;;
18334;SDS011;9293;49.524;10.964;2023-03-02T02:28:20;29.52;;;17.45;;
18334;SDS011;9293;49.524;10.964;2023-03-02T02:31:05;26.80;;;17.30;;
18334;SDS011;9293;49.524;10.964;2023-03-02T02:33:48;29.95;;;18.48;;
18334;SDS011;9293;49.524;10.964;2023-03-02T02:36:24;29.88;;;16.77;;
18334;SDS011;9293;49.524;10.964;2023-03-02T02:39:06;28.98;;;17.77;;
18334;SDS011;9293;49.524;10.964;2023-03-02T02:41:38;29.95;;;19.42;;
18334;SDS011;9293;49.524;10.964;2023-03-02T02:44:11;33.30;;;19.33;;
18334;SDS011;9293;49.524;10.964;2023-03-02T02:46:45;30.70;;;19.17;;
18334;SDS011;9293;49.524;10.964;2023-03-02T02:49:25;28.85;;;18.75;;
18334;SDS011;9293;49.524;10.964;2023-03-02T02:51:54;28.92;;;18.30;;
18334;SDS011;9293;49.524;10.964;2023-03-02T02:54:22;30.85;;;18.85;;
18334;SDS011;9293;49.524;10.964;2023-03-02T02:56:51;32.10;;;19.35;;
18334;SDS011;9293;49.524;10.964;2023-03-02T03:01:51;30.67;;;18.08;;
18334;SDS011;9293;49.524;10.964;2023-03-02T03:04:20;32.42;;;19.05;;
18334;SDS011;9293;49.524;10.964;2023-03-02T03:09:19;29.88;;;18.30;;
18334;SDS011;9293;49.524;10.964;2023-03-02T03:11:49;29.42;;;17.05;;
18334;SDS011;9293;49.524;10.964;2023-03-02T03:14:33;29.38;;;18.35;;
18334;SDS011;9293;49.524;10.964;2023-03-02T03:17:03;29.75;;;18.33;;
18334;SDS011;9293;49.524;10.964;2023-03-02T03:19:48;30.77;;;18.55;;
18334;SDS011;9293;49.524;10.964;2023-03-02T03:22:19;29.52;;;18.45;;
18334;SDS011;9293;49.524;10.964;2023-03-02T03:24:50;31.80;;;19.63;;
18334;SDS011;9293;49.524;10.964;2023-03-02T03:27:19;32.38;;;20.30;;
18334;SDS011;9293;49.524;10.964;2023-03-02T03:29:47;31.95;;;19.58;;
18334;SDS011;9293;49.524;10.964;2023-03-02T03:32:18;30.27;;;19.73;;
18334;SDS011;9293;49.524;10.964;2023-03-02T03:34:49;28.88;;;18.35;;
18334;SDS011;9293;49.524;10.964;2023-03-02T03:37:26;29.65;;;18.83;;
18334;SDS011;9293;49.524;10.964;2023-03-02T03:39:54;31.05;;;18.58;;
18334;SDS011;9293;49.524;10.964;2023-03-02T03:42:22;29.00;;;17.70;;
18334;SDS011;9293;49.524;10.964;2023-03-02T03:44:52;32.17;;;19.27;;
18334;SDS011;9293;49.524;10.964;2023-03-02T03:47:21;26.15;;;17.33;;
18334;SDS011;9293;49.524;10.964;2023-03-02T03:49:50;27.73;;;17.42;;
18334;SDS011;9293;49.524;10.964;2023-03-02T03:52:19;30.25;;;18.77;;
18334;SDS011;9293;49.524;10.964;2023-03-02T03:55:19;29.65;;;17.13;;
18334;SDS011;9293;49.524;10.964;2023-03-02T03:57:51;28.58;;;16.85;;
18334;SDS011;9293;49.524;10.964;2023-03-02T04:00:23;31.73;;;18.05;;
18334;SDS011;9293;49.524;10.964;2023-03-02T04:03:01;26.17;;;16.58;;
18334;SDS011;9293;49.524;10.964;2023-03-02T04:05:33;27.67;;;18.10;;
18334;SDS011;9293;49.524;10.964;2023-03-02T04:08:02;27.25;;;17.35;;
18334;SDS011;9293;49.524;10.964;2023-03-02T04:10:31;29.25;;;17.25;;
18334;SDS011;9293;49.524;10.964;2023-03-02T04:13:00;28.33;;;17.70;;
18334;SDS011;9293;49.524;10.964;2023-03-02T04:15:29;29.17;;;17.13;;
18334;SDS011;9293;49.524;10.964;2023-03-02T04:17:58;26.50;;;17.27;;
18334;SDS011;9293;49.524;10.964;2023-03-02T04:20:26;29.27;;;18.10;;
18334;SDS011;9293;49.524;10.964;2023-03-02T04:22:56;28.40;;;16.98;;
18334;SDS011;9293;49.524;10.964;2023-03-02T04:25:25;28.40;;;17.90;;
18334;SDS011;9293;49.524;10.964;2023-03-02T04:28:01;28.33;;;17.90;;
18334;SDS011;9293;49.524;10.964;2023-03-02T04:30:34;32.15;;;17.95;;
18334;SDS011;9293;49.524;10.964;2023-03-02T04:33:02;29.98;;;18.20;;
18334;SDS011;9293;49.524;10.964;2023-03-02T04:35:33;28.10;;;18.13;;
18334;SDS011;9293;49.524;10.964;2023-03-02T04:38:02;29.95;;;17.50;;
18334;SDS011;9293;49.524;10.964;2023-03-02T04:40:30;29.67;;;17.45;;
18334;SDS011;9293;49.524;10.964;2023-03-02T04:42:58;28.02;;;18.27;;
18334;SDS011;9293;49.524;10.964;2023-03-02T04:45:26;29.08;;;17.92;;
18334;SDS011;9293;49.524;10.964;2023-03-02T04:47:54;28.60;;;17.75;;
18334;SDS011;9293;49.524;10.964;2023-03-02T04:50:22;28.83;;;17.15;;
18334;SDS011;9293;49.524;10.964;2023-03-02T04:52:50;27.05;;;17.50;;
18334;SDS011;9293;49.524;10.964;2023-03-02T04:55:20;30.48;;;17.90;;
18334;SDS011;9293;49.524;10.964;2023-03-02T04:57:52;28.92;;;17.73;;
18334;SDS011;9293;49.524;10.964;2023-03-02T05:00:22;31.33;;;18.20;;
18334;SDS011;9293;49.524;10.964;2023-03-02T05:02:53;27.13;;;16.90;;
18334;SDS011;9293;49.524;10.964;2023-03-02T05:05:22;31.35;;;18.83;;
18334;SDS011;9293;49.524;10.964;2023-03-02T05:07:51;30.92;;;18.10;;
18334;SDS011;9293;49.524;10.964;2023-03-02T05:10:20;32.45;;;19.27;;
18334;SDS011;9293;49.524;10.964;2023-03-02T05:12:49;31.65;;;18.40;;
18334;SDS011;9293;49.524;10.964;2023-03-02T05:15:32;30.63;;;18.55;;
18334;SDS011;9293;49.524;10.964;2023-03-02T05:18:03;31.67;;;18.75;;
18334;SDS011;9293;49.524;10.964;2023-03-02T05:20:33;28.63;;;18.13;;
18334;SDS011;9293;49.524;10.964;2023-03-02T05:23:05;30.17;;;17.77;;
18334;SDS011;9293;49.524;10.964;2023-03-02T05:25:35;32.60;;;19.35;;
18334;SDS011;9293;49.524;10.964;2023-03-02T05:28:04;33.35;;;18.58;;
18334;SDS011;9293;49.524;10.964;2023-03-02T05:30:32;31.73;;;18.63;;
18334;SDS011;9293;49.524;10.964;2023-03-02T05:33:03;30.90;;;18.13;;
18334;SDS011;9293;49.524;10.964;2023-03-02T05:35:31;30.52;;;18.38;;
18334;SDS011;9293;49.524;10.964;2023-03-02T05:38:00;30.85;;;18.08;;
18334;SDS011;9293;49.524;10.964;2023-03-02T05:40:28;31.73;;;18.60;;
18334;SDS011;9293;49.524;10.964;2023-03-02T05:42:56;32.38;;;19.20;;
18334;SDS011;9293;49.524;10.964;2023-03-02T05:45:29;29.20;;;17.38;;
18334;SDS011;9293;49.524;10.964;2023-03-02T05:48:05;29.00;;;18.13;;
18334;SDS011;9293;49.524;10.964;2023-03-02T05:50:38;34.65;;;18.15;;
18334;SDS011;9293;49.524;10.964;2023-03-02T05:53:06;35.83;;;19.45;;
18334;SDS011;9293;49.524;10.964;2023-03-02T05:55:35;32.80;;;18.33;;
18334;SDS011;9293;49.524;10.964;2023-03-02T05:58:06;28.88;;;17.90;;
18334;SDS011;9293;49.524;10.964;2023-03-02T06:00:38;32.03;;;19.00;;
18334;SDS011;9293;49.524;10.964;2023-03-02T06:03:06;31.23;;;19.08;;
18334;SDS011;9293;49.524;10.964;2023-03-02T06:05:34;31.90;;;18.33;;
18334;SDS011;9293;49.524;10.964;2023-03-02T06:08:05;30.02;;;17.48;;
18334;SDS011;9293;49.524;10.964;2023-03-02T06:10:33;27.23;;;17.20;;
18334;SDS011;9293;49.524;10.964;2023-03-02T06:13:01;32.35;;;18.15;;
18334;SDS011;9293;49.524;10.964;2023-03-02T06:15:30;29.38;;;17.67;;
18334;SDS011;9293;49.524;10.964;2023-03-02T06:18:00;30.10;;;17.77;;
18334;SDS011;9293;49.524;10.964;2023-03-02T06:20:28;30.65;;;18.52;;
18334;SDS011;9293;49.524;10.964;2023-03-02T06:22:57;28.73;;;17.27;;
18334;SDS011;9293;49.524;10.964;2023-03-02T06:25:28;30.63;;;17.30;;
18334;SDS011;9293;49.524;10.964;2023-03-02T06:27:56;31.55;;;17.63;;
18334;SDS011;9293;49.524;10.964;2023-03-02T06:30:24;33.33;;;17.65;;
18334;SDS011;9293;49.524;10.964;2023-03-02T06:32:53;33.00;;;18.52;;
18334;SDS011;9293;49.524;10.964;2023-03-02T06:35:22;31.33;;;18.75;;
18334;SDS011;9293;49.524;10.964;2023-03-02T06:37:50;34.50;;;18.60;;
18334;SDS011;9293;49.524;10.964;2023-03-02T06:40:18;34.53;;;18.70;;
18334;SDS011;9293;49.524;10.964;2023-03-02T06:42:54;27.85;;;17.88;;
18334;SDS011;9293;49.524;10.964;2023-03-02T06:45:30;35.35;;;19.27;;
18334;SDS011;9293;49.524;10.964;2023-03-02T06:48:04;35.08;;;20.27;;
18334;SDS011;9293;49.524;10.964;2023-03-02T06:50:44;30.13;;;17.20;;
18334;SDS011;9293;49.524;10.964;2023-03-02T06:53:15;28.67;;;17.23;;
18334;SDS011;9293;49.524;10.964;2023-03-02T06:55:46;31.80;;;18.25;;
18334;SDS011;9293;49.524;10.964;2023-03-02T06:58:14;31.85;;;18.27;;
18334;SDS011;9293;49.524;10.964;2023-03-02T07:00:44;28.13;;;16.92;;
18334;SDS011;9293;49.524;10.964;2023-03-02T07:03:12;28.85;;;17.38;;
18334;SDS011;9293;49.524;10.964;2023-03-02T07:05:41;26.95;;;16.42;;
18334;SDS011;9293;49.524;10.964;2023-03-02T07:08:11;26.92;;;16.05;;
18334;SDS011;9293;49.524;10.964;2023-03-02T07:10:39;25.85;;;16.20;;
18334;SDS011;9293;49.524;10.964;2023-03-02T07:13:07;25.92;;;17.38;;
18334;SDS011;9293;49.524;10.964;2023-03-02T07:15:37;30.58;;;17.33;;
18334;SDS011;9293;49.524;10.964;2023-03-02T07:18:05;25.40;;;15.82;;
18334;SDS011;9293;49.524;10.964;2023-03-02T07:20:34;24.17;;;16.15;;
18334;SDS011;9293;49.524;10.964;2023-03-02T07:23:03;23.05;;;15.82;;
18334;SDS011;9293;49.524;10.964;2023-03-02T07:25:31;26.77;;;15.57;;
18334;SDS011;9293;49.524;10.964;2023-03-02T07:28:07;23.95;;;17.05;;
18334;SDS011;9293;49.524;10.964;2023-03-02T07:30:38;24.10;;;16.55;;
18334;SDS011;9293;49.524;10.964;2023-03-02T07:33:06;26.10;;;16.63;;
18334;SDS011;9293;49.524;10.964;2023-03-02T07:35:34;22.35;;;15.45;;
18334;SDS011;9293;49.524;10.964;2023-03-02T07:38:01;22.65;;;15.88;;
18334;SDS011;9293;49.524;10.964;2023-03-02T07:40:29;23.45;;;17.38;;
18334;SDS011;9293;49.524;10.964;2023-03-02T07:42:58;23.88;;;15.93;;
18334;SDS011;9293;49.524;10.964;2023-03-02T07:45:26;25.52;;;15.60;;
18334;SDS011;9293;49.524;10.964;2023-03-02T07:47:53;20.70;;;15.45;;
18334;SDS011;9293;49.524;10.964;2023-03-02T07:50:21;25.10;;;16.77;;
18334;SDS011;9293;49.524;10.964;2023-03-02T07:52:49;25.65;;;17.08;;
18334;SDS011;9293;49.524;10.964;2023-03-02T07:55:17;20.77;;;14.48;;
18334;SDS011;9293;49.524;10.964;2023-03-02T07:57:45;25.48;;;16.23;;
18334;SDS011;9293;49.524;10.964;2023-03-02T08:00:19;21.45;;;16.38;;
18334;SDS011;9293;49.524;10.964;2023-03-02T08:02:48;21.10;;;15.88;;
18334;SDS011;9293;49.524;10.964;2023-03-02T08:05:18;24.57;;;15.73;;
18334;SDS011;9293;49.524;10.964;2023-03-02T08:07:49;21.50;;;15.57;;
18334;SDS011;9293;49.524;10.964;2023-03-02T08:10:17;22.88;;;15.27;;
18334;SDS011;9293;49.524;10.964;2023-03-02T08:12:45;21.73;;;14.00;;
18334;SDS011;9293;49.524;10.964;2023-03-02T08:15:13;22.83;;;14.80;;
18334;SDS011;9293;49.524;10.964;2023-03-02T08:17:41;27.33;;;17.05;;
18334;SDS011;9293;49.524;10.964;2023-03-02T08:20:09;22.98;;;15.95;;
18334;SDS011;9293;49.524;10.964;2023-03-02T08:22:38;21.88;;;14.93;;
18334;SDS011;9293;49.524;10.964;2023-03-02T08:25:06;22.92;;;15.13;;
18334;SDS011;9293;49.524;10.964;2023-03-02T08:27:34;24.45;;;16.13;;
18334;SDS011;9293;49.524;10.964;2023-03-02T08:30:03;23.08;;;14.93;;
18334;SDS011;9293;49.524;10.964;2023-03-02T08:32:32;18.42;;;13.77;;
18334;SDS011;9293;49.524;10.964;2023-03-02T08:35:01;22.70;;;14.45;;
18334;SDS011;9293;49.524;10.964;2023-03-02T08:37:29;19.00;;;14.07;;
18334;SDS011;9293;49.524;10.964;2023-03-02T08:39:57;22.42;;;15.02;;
18334;SDS011;9293;49.524;10.964;2023-03-02T08:42:25;20.17;;;14.50;;
18334;SDS011;9293;49.524;10.964;2023-03-02T08:44:53;19.83;;;14.32;;
18334;SDS011;9293;49.524;10.964;2023-03-02T08:47:21;19.60;;;14.50;;
18334;SDS011;9293;49.524;10.964;2023-03-02T08:49:49;23.92;;;13.57;;
18334;SDS011;9293;49.524;10.964;2023-03-02T08:52:17;19.85;;;15.07;;
18334;SDS011;9293;49.524;10.964;2023-03-02T08:54:45;22.10;;;14.20;;
18334;SDS011;9293;49.524;10.964;2023-03-02T08:57:13;22.00;;;13.68;;
18334;SDS011;9293;49.524;10.964;2023-03-02T08:59:41;19.52;;;14.27;;
18334;SDS011;9293;49.524;10.964;2023-03-02T09:02:10;20.48;;;14.00;;
18334;SDS011;9293;49.524;10.964;2023-03-02T09:04:38;19.98;;;13.40;;
18334;SDS011;9293;49.524;10.964;2023-03-02T09:07:06;16.40;;;12.48;;
18334;SDS011;9293;49.524;10.964;2023-03-02T09:09:35;17.52;;;12.93;;
18334;SDS011;9293;49.524;10.964;2023-03-02T09:12:03;17.73;;;13.68;;
18334;SDS011;9293;49.524;10.964;2023-03-02T09:14:33;19.10;;;13.70;;
18334;SDS011;9293;49.524;10.964;2023-03-02T09:17:02;19.20;;;13.55;;
18334;SDS011;9293;49.524;10.964;2023-03-02T09:19:34;20.02;;;13.65;;
18334;SDS011;9293;49.524;10.964;2023-03-02T09:22:10;19.05;;;13.00;;
18334;SDS011;9293;49.524;10.964;2023-03-02T09:24:37;20.70;;;14.00;;
18334;SDS011;9293;49.524;10.964;2023-03-02T09:27:05;21.92;;;14.05;;
18334;SDS011;9293;49.524;10.964;2023-03-02T09:29:33;19.50;;;13.35;;
18334;SDS011;9293;49.524;10.964;2023-03-02T09:32:01;28.10;;;13.57;;
18334;SDS011;9293;49.524;10.964;2023-03-02T09:34:30;21.20;;;14.00;;
18334;SDS011;9293;49.524;10.964;2023-03-02T09:36:57;22.00;;;13.43;;
18334;SDS011;9293;49.524;10.964;2023-03-02T09:39:25;23.45;;;13.95;;
18334;SDS011;9293;49.524;10.964;2023-03-02T09:44:29;18.83;;;13.07;;
18334;SDS011;9293;49.524;10.964;2023-03-02T09:55:39;19.42;;;12.77;;
18334;SDS011;9293;49.524;10.964;2023-03-02T09:58:11;23.73;;;13.48;;
18334;SDS011;9293;49.524;10.964;2023-03-02T10:00:43;19.55;;;13.77;;
18334;SDS011;9293;49.524;10.964;2023-03-02T10:05:51;18.23;;;13.25;;
18334;SDS011;9293;49.524;10.964;2023-03-02T10:08:25;17.50;;;12.98;;
18334;SDS011;9293;49.524;10.964;2023-03-02T10:10:56;18.90;;;13.70;;
18334;SDS011;9293;49.524;10.964;2023-03-02T10:13:39;17.85;;;13.30;;
18334;SDS011;9293;49.524;10.964;2023-03-02T10:21:43;23.58;;;15.57;;
18334;SDS011;9293;49.524;10.964;2023-03-02T10:26:56;18.80;;;13.55;;
18334;SDS011;9293;49.524;10.964;2023-03-02T10:29:35;20.77;;;12.07;;
18334;SDS011;9293;49.524;10.964;2023-03-02T10:32:30;21.42;;;13.25;;
18334;SDS011;9293;49.524;10.964;2023-03-02T10:35:39;18.25;;;12.23;;
18334;SDS011;9293;49.524;10.964;2023-03-02T10:38:03;20.98;;;12.73;;
18334;SDS011;9293;49.524;10.964;2023-03-02T10:40:43;23.23;;;14.20;;
18334;SDS011;9293;49.524;10.964;2023-03-02T10:43:23;17.27;;;11.20;;
18334;SDS011;9293;49.524;10.964;2023-03-02T10:45:59;20.88;;;12.25;;
18334;SDS011;9293;49.524;10.964;2023-03-02T10:48:28;17.73;;;11.63;;
18334;SDS011;9293;49.524;10.964;2023-03-02T10:50:57;15.75;;;11.70;;
18334;SDS011;9293;49.524;10.964;2023-03-02T10:53:26;18.20;;;11.23;;
18334;SDS011;9293;49.524;10.964;2023-03-02T10:55:55;17.30;;;11.00;;
18334;SDS011;9293;49.524;10.964;2023-03-02T11:03:28;16.13;;;11.52;;
18334;SDS011;9293;49.524;10.964;2023-03-02T11:05:57;19.20;;;12.07;;
18334;SDS011;9293;49.524;10.964;2023-03-02T11:08:36;23.70;;;12.05;;
18334;SDS011;9293;49.524;10.964;2023-03-02T11:11:04;19.75;;;11.95;;
18334;SDS011;9293;49.524;10.964;2023-03-02T11:13:33;19.48;;;11.43;;
18334;SDS011;9293;49.524;10.964;2023-03-02T11:18:45;16.10;;;10.60;;
18334;SDS011;9293;49.524;10.964;2023-03-02T11:32:04;17.60;;;11.68;;
18334;SDS011;9293;49.524;10.964;2023-03-02T11:37:20;16.92;;;9.98;;
18334;SDS011;9293;49.524;10.964;2023-03-02T11:42:39;19.63;;;11.40;;
18334;SDS011;9293;49.524;10.964;2023-03-02T11:47:41;16.33;;;10.43;;
18334;SDS011;9293;49.524;10.964;2023-03-02T11:50:23;17.65;;;10.35;;
18334;SDS011;9293;49.524;10.964;2023-03-02T11:52:53;18.67;;;10.68;;
18334;SDS011;9293;49.524;10.964;2023-03-02T11:55:25;18.42;;;10.32;;
18334;SDS011;9293;49.524;10.964;2023-03-02T11:57:59;15.13;;;10.13;;
18334;SDS011;9293;49.524;10.964;2023-03-02T12:00:39;17.63;;;9.68;;
18334;SDS011;9293;49.524;10.964;2023-03-02T12:05:45;16.95;;;10.07;;
18334;SDS011;9293;49.524;10.964;2023-03-02T12:08:33;12.90;;;8.60;;
18334;SDS011;9293;49.524;10.964;2023-03-02T12:11:07;14.75;;;8.60;;
18334;SDS011;9293;49.524;10.964;2023-03-02T12:14:22;18.77;;;8.98;;
18334;SDS011;9293;49.524;10.964;2023-03-02T12:17:05;16.88;;;9.52;;
18334;SDS011;9293;49.524;10.964;2023-03-02T12:20:21;17.13;;;10.05;;
18334;SDS011;9293;49.524;10.964;2023-03-02T12:22:51;18.00;;;9.52;;
18334;SDS011;9293;49.524;10.964;2023-03-02T12:27:48;20.55;;;9.13;;
18334;SDS011;9293;49.524;10.964;2023-03-02T12:33:05;14.55;;;8.32;;
18334;SDS011;9293;49.524;10.964;2023-03-02T12:35:47;18.10;;;8.18;;
18334;SDS011;9293;49.524;10.964;2023-03-02T12:41:17;14.65;;;8.00;;
18334;SDS011;9293;49.524;10.964;2023-03-02T12:46:44;16.15;;;8.38;;
18334;SDS011;9293;49.524;10.964;2023-03-02T12:49:58;13.95;;;8.68;;
18334;SDS011;9293;49.524;10.964;2023-03-02T12:52:54;13.77;;;7.93;;
18334;SDS011;9293;49.524;10.964;2023-03-02T12:57:45;14.85;;;8.85;;
18334;SDS011;9293;49.524;10.964;2023-03-02T13:00:16;14.25;;;8.50;;
18334;SDS011;9293;49.524;10.964;2023-03-02T13:02:47;18.98;;;8.00;;
18334;SDS011;9293;49.524;10.964;2023-03-02T13:05:21;19.42;;;8.25;;
18334;SDS011;9293;49.524;10.964;2023-03-02T13:07:58;15.20;;;7.57;;
18334;SDS011;9293;49.524;10.964;2023-03-02T13:10:33;15.90;;;7.75;;
18334;SDS011;9293;49.524;10.964;2023-03-02T13:13:12;19.67;;;8.60;;
18334;SDS011;9293;49.524;10.964;2023-03-02T13:16:32;17.83;;;7.65;;
18334;SDS011;9293;49.524;10.964;2023-03-02T13:18:57;19.33;;;7.72;;
18334;SDS011;9293;49.524;10.964;2023-03-02T13:21:31;14.15;;;7.65;;
18334;SDS011;9293;49.524;10.964;2023-03-02T13:24:53;12.65;;;7.03;;
18334;SDS011;9293;49.524;10.964;2023-03-02T13:26:56;15.27;;;6.47;;
18334;SDS011;9293;49.524;10.964;2023-03-02T13:29:26;15.95;;;7.35;;
18334;SDS011;9293;49.524;10.964;2023-03-02T13:31:54;14.48;;;7.18;;
18334;SDS011;9293;49.524;10.964;2023-03-02T13:34:26;12.07;;;6.80;;
18334;SDS011;9293;49.524;10.964;2023-03-02T13:36:57;16.90;;;7.28;;
18334;SDS011;9293;49.524;10.964;2023-03-02T13:39:26;13.70;;;6.75;;
18334;SDS011;9293;49.524;10.964;2023-03-02T13:42:00;18.03;;;7.60;;
18334;SDS011;9293;49.524;10.964;2023-03-02T13:44:33;13.77;;;6.25;;
18334;SDS011;9293;49.524;10.964;2023-03-02T13:47:04;15.68;;;6.65;;
18334;SDS011;9293;49.524;10.964;2023-03-02T13:49:49;12.40;;;5.63;;
18334;SDS011;9293;49.524;10.964;2023-03-02T13:52:21;12.00;;;5.80;;
18334;SDS011;9293;49.524;10.964;2023-03-02T13:54:54;12.05;;;5.47;;
18334;SDS011;9293;49.524;10.964;2023-03-02T13:57:28;14.82;;;6.22;;
18334;SDS011;9293;49.524;10.964;2023-03-02T13:59:58;14.20;;;5.70;;
18334;SDS011;9293;49.524;10.964;2023-03-02T14:02:27;14.23;;;6.45;;
18334;SDS011;9293;49.524;10.964;2023-03-02T14:04:56;13.10;;;5.90;;
18334;SDS011;9293;49.524;10.964;2023-03-02T14:07:24;13.68;;;6.40;;
18334;SDS011;9293;49.524;10.964;2023-03-02T14:09:52;15.02;;;5.72;;
18334;SDS011;9293;49.524;10.964;2023-03-02T14:12:23;21.88;;;6.32;;
18334;SDS011;9293;49.524;10.964;2023-03-02T14:14:55;12.52;;;5.38;;
18334;SDS011;9293;49.524;10.964;2023-03-02T14:17:29;9.70;;;4.70;;
18334;SDS011;9293;49.524;10.964;2023-03-02T14:19:57;12.82;;;4.78;;
18334;SDS011;9293;49.524;10.964;2023-03-02T14:22:25;15.73;;;4.22;;
18334;SDS011;9293;49.524;10.964;2023-03-02T14:24:55;12.70;;;4.70;;
18334;SDS011;9293;49.524;10.964;2023-03-02T14:27:24;10.13;;;5.07;;
18334;SDS011;9293;49.524;10.964;2023-03-02T14:30:06;17.42;;;4.65;;
18334;SDS011;9293;49.524;10.964;2023-03-02T14:32:40;12.48;;;4.85;;
18334;SDS011;9293;49.524;10.964;2023-03-02T14:35:12;13.57;;;5.03;;
18334;SDS011;9293;49.524;10.964;2023-03-02T14:37:44;10.00;;;4.45;;
18334;SDS011;9293;49.524;10.964;2023-03-02T14:40:15;23.15;;;9.63;;
18334;SDS011;9293;49.524;10.964;2023-03-02T14:42:47;8.70;;;4.90;;
18334;SDS011;9293;49.524;10.964;2023-03-02T14:45:20;10.95;;;4.65;;
18334;SDS011;9293;49.524;10.964;2023-03-02T14:47:50;9.95;;;4.85;;
18334;SDS011;9293;49.524;10.964;2023-03-02T14:50:19;10.80;;;5.30;;
18334;SDS011;9293;49.524;10.964;2023-03-02T14:52:47;11.18;;;4.88;;
18334;SDS011;9293;49.524;10.964;2023-03-02T14:55:28;13.57;;;5.75;;
18334;SDS011;9293;49.524;10.964;2023-03-02T14:58:19;19.38;;;5.13;;
18334;SDS011;9293;49.524;10.964;2023-03-02T15:00:46;14.70;;;5.78;;
18334;SDS011;9293;49.524;10.964;2023-03-02T15:03:15;11.70;;;6.75;;
18334;SDS011;9293;49.524;10.964;2023-03-02T15:05:52;13.75;;;6.57;;
18334;SDS011;9293;49.524;10.964;2023-03-02T15:08:27;12.77;;;5.70;;
18334;SDS011;9293;49.524;10.964;2023-03-02T15:10:55;17.63;;;5.65;;
18334;SDS011;9293;49.524;10.964;2023-03-02T15:13:23;14.30;;;5.32;;
18334;SDS011;9293;49.524;10.964;2023-03-02T15:15:51;19.92;;;6.45;;
18334;SDS011;9293;49.524;10.964;2023-03-02T15:18:19;16.15;;;6.05;;
18334;SDS011;9293;49.524;10.964;2023-03-02T15:20:47;12.30;;;5.35;;
18334;SDS011;9293;49.524;10.964;2023-03-02T15:23:15;14.73;;;5.30;;
18334;SDS011;9293;49.524;10.964;2023-03-02T15:25:43;12.77;;;5.10;;
18334;SDS011;9293;49.524;10.964;2023-03-02T15:28:11;12.68;;;5.18;;
18334;SDS011;9293;49.524;10.964;2023-03-02T15:30:39;15.75;;;5.15;;
18334;SDS011;9293;49.524;10.964;2023-03-02T15:33:10;11.68;;;5.53;;
18334;SDS011;9293;49.524;10.964;2023-03-02T15:35:38;14.35;;;5.47;;
18334;SDS011;9293;49.524;10.964;2023-03-02T15:38:07;20.23;;;5.72;;
18334;SDS011;9293;49.524;10.964;2023-03-02T15:40:37;13.68;;;5.15;;
18334;SDS011;9293;49.524;10.964;2023-03-02T15:43:05;14.23;;;5.68;;
18334;SDS011;9293;49.524;10.964;2023-03-02T15:45:33;14.98;;;5.43;;
18334;SDS011;9293;49.524;10.964;2023-03-02T15:48:02;13.10;;;5.55;;
18334;SDS011;9293;49.524;10.964;2023-03-02T15:50:30;11.98;;;5.38;;
18334;SDS011;9293;49.524;10.964;2023-03-02T15:52:58;10.57;;;5.15;;
18334;SDS011;9293;49.524;10.964;2023-03-02T15:55:26;14.68;;;5.70;;
18334;SDS011;9293;49.524;10.964;2023-03-02T15:57:54;14.85;;;5.65;;
18334;SDS011;9293;49.524;10.964;2023-03-02T16:00:24;10.25;;;5.32;;
18334;SDS011;9293;49.524;10.964;2023-03-02T16:02:53;15.80;;;5.82;;
18334;SDS011;9293;49.524;10.964;2023-03-02T16:05:22;11.10;;;5.93;;
18334;SDS011;9293;49.524;10.964;2023-03-02T16:07:50;13.57;;;5.38;;
18334;SDS011;9293;49.524;10.964;2023-03-02T16:10:28;18.52;;;6.22;;
18334;SDS011;9293;49.524;10.964;2023-03-02T16:13:07;12.18;;;6.10;;
18334;SDS011;9293;49.524;10.964;2023-03-02T16:15:37;17.58;;;5.63;;
18334;SDS011;9293;49.524;10.964;2023-03-02T16:18:08;14.35;;;6.72;;